TimeEDT,TemperatureF,Dew PointF,Humidity,Sea Level PressureIn,VisibilityMPH,Wind Direction,Wind SpeedMPH,Gust SpeedMPH,PrecipitationIn,Events,Conditions,WindDirDegrees,DateUTC
12:03 AM,50.0,48.0,93,30.28,6.0,Calm,Calm,-,N/A,,Scattered Clouds,0,2013-10-15 04:03:00
12:23 AM,51.1,48.9,92,30.27,8.0,SE,3.5,-,N/A,,Mostly Cloudy,140,2013-10-15 04:23:00
12:53 AM,51.1,48.9,92,30.27,9.0,Calm,Calm,-,N/A,,Overcast,0,2013-10-15 04:53:00
1:18 AM,52.0,50.0,93,30.26,9.0,Calm,Calm,-,N/A,,Overcast,0,2013-10-15 05:18:00
1:26 AM,52.0,50.0,93,30.26,9.0,Calm,Calm,-,N/A,,Overcast,0,2013-10-15 05:26:00
1:36 AM,52.0,50.0,93,30.26,8.0,Calm,Calm,-,N/A,,Overcast,0,2013-10-15 05:36:00
1:53 AM,53.1,50.0,89,30.26,9.0,Calm,Calm,-,N/A,,Overcast,0,2013-10-15 05:53:00
2:43 AM,53.1,50.0,89,30.25,8.0,ESE,4.6,-,N/A,,Overcast,120,2013-10-15 06:43:00
2:53 AM,53.1,50.0,89,30.24,7.0,ESE,3.5,-,N/A,,Overcast,120,2013-10-15 06:53:00
3:07 AM,53.1,51.1,93,30.24,7.0,ESE,3.5,-,N/A,,Overcast,120,2013-10-15 07:07:00
3:53 AM,53.1,51.1,93,30.22,8.0,ESE,3.5,-,N/A,,Overcast,110,2013-10-15 07:53:00
4:53 AM,53.1,51.1,93,30.22,7.0,Calm,Calm,-,N/A,,Overcast,0,2013-10-15 08:53:00
5:53 AM,53.1,51.1,93,30.21,6.0,SE,3.5,-,N/A,,Overcast,130,2013-10-15 09:53:00
6:53 AM,53.1,51.1,93,30.22,4.0,Calm,Calm,-,N/A,,Overcast,0,2013-10-15 10:53:00
7:22 AM,53.1,51.1,93,30.22,4.0,Calm,Calm,-,N/A,,Overcast,0,2013-10-15 11:22:00
7:53 AM,53.1,51.1,93,30.23,5.0,SSE,4.6,-,N/A,,Overcast,150,2013-10-15 11:53:00
8:53 AM,53.1,51.1,93,30.23,4.0,SSE,6.9,-,N/A,,Overcast,150,2013-10-15 12:53:00
9:53 AM,54.0,51.1,90,30.22,7.0,SSE,6.9,-,N/A,,Overcast,150,2013-10-15 13:53:00
10:53 AM,55.0,51.1,86,30.20,10.0,SSE,6.9,-,N/A,,Overcast,160,2013-10-15 14:53:00
11:53 AM,55.0,51.1,86,30.19,10.0,SSE,8.1,-,N/A,,Overcast,160,2013-10-15 15:53:00
12:53 PM,55.9,51.1,84,30.17,10.0,South,8.1,-,N/A,,Overcast,170,2013-10-15 16:53:00
1:27 PM,57.0,51.1,81,30.17,10.0,SSE,5.8,-,N/A,,Overcast,160,2013-10-15 17:27:00
1:53 PM,57.9,52.0,81,30.14,10.0,South,4.6,-,N/A,,Overcast,180,2013-10-15 17:53:00
2:53 PM,59.0,52.0,78,30.12,10.0,SE,9.2,-,N/A,,Overcast,140,2013-10-15 18:53:00
3:38 PM,61.0,53.1,75,30.11,9.0,SE,11.5,16.1,N/A,,Overcast,130,2013-10-15 19:38:00
3:53 PM,61.0,52.0,72,30.09,9.0,South,6.9,-,N/A,,Overcast,180,2013-10-15 19:53:00
4:10 PM,61.0,52.0,72,30.10,10.0,South,8.1,-,N/A,,Scattered Clouds,170,2013-10-15 20:10:00
4:53 PM,62.1,53.1,72,30.07,10.0,South,4.6,-,N/A,,Clear,170,2013-10-15 20:53:00
5:53 PM,62.1,53.1,72,30.07,10.0,SSE,3.5,-,N/A,,Clear,160,2013-10-15 21:53:00
6:53 PM,59.0,52.0,78,30.07,10.0,SSE,3.5,-,N/A,,Clear,160,2013-10-15 22:53:00
7:53 PM,59.0,52.0,78,30.06,10.0,SSE,5.8,-,N/A,,Clear,150,2013-10-15 23:53:00
8:53 PM,60.1,51.1,72,30.05,10.0,SSE,6.9,-,N/A,,Clear,160,2013-10-16 00:53:00
9:53 PM,59.0,50.0,72,30.04,10.0,SSE,6.9,-,N/A,,Clear,150,2013-10-16 01:53:00
10:53 PM,59.0,48.0,67,30.04,10.0,SSE,8.1,-,N/A,,Mostly Cloudy,150,2013-10-16 02:53:00
11:53 PM,57.9,46.0,65,30.02,10.0,SSE,9.2,-,N/A,,Partly Cloudy,150,2013-10-16 03:53:00